createdAt,value
2022-08-21T00:06:06.864Z,3566
2022-08-21T00:16:06.832Z,3566
2022-08-21T00:26:06.842Z,3563
2022-08-21T00:36:06.800Z,3563
2022-08-21T00:46:06.821Z,3566
2022-08-21T00:56:06.794Z,3563
2022-08-21T01:06:06.735Z,3563
2022-08-21T01:16:06.719Z,3563
2022-08-21T01:26:06.703Z,3563
2022-08-21T01:36:06.675Z,3563
2022-08-21T01:46:06.690Z,3563
2022-08-21T01:56:06.657Z,3563
2022-08-21T02:06:06.624Z,3563
2022-08-21T02:16:06.615Z,3563
2022-08-21T02:26:06.593Z,3563
2022-08-21T02:36:06.572Z,3563
2022-08-21T02:46:06.574Z,3563
2022-08-21T02:56:06.525Z,3563
2022-08-21T03:06:06.506Z,3563
2022-08-21T03:16:10.017Z,3563
2022-08-21T03:26:06.469Z,3563
2022-08-21T03:36:06.438Z,3563
2022-08-21T03:46:06.451Z,3561
2022-08-21T03:56:06.420Z,3558
2022-08-21T04:06:06.383Z,3558
2022-08-21T04:16:06.369Z,3558
2022-08-21T04:26:06.342Z,3558
2022-08-21T04:36:06.330Z,3558
2022-08-21T04:46:06.350Z,3558
2022-08-21T04:56:06.288Z,3558
2022-08-21T05:06:06.268Z,3558
2022-08-21T05:16:06.283Z,3561
2022-08-21T05:26:06.240Z,3558
2022-08-21T05:36:06.216Z,3558
2022-08-21T05:46:06.198Z,3558
2022-08-21T05:56:06.209Z,3561
2022-08-21T06:06:06.150Z,3558
2022-08-21T06:16:06.155Z,3563
2022-08-21T06:26:06.163Z,3558
2022-08-21T06:36:06.104Z,3561
2022-08-21T06:46:06.078Z,3563
2022-08-21T06:56:06.082Z,3563
2022-08-21T07:06:06.039Z,3563
2022-08-21T07:16:06.025Z,3563
2022-08-21T07:26:06.030Z,3566
2022-08-21T07:36:05.982Z,3563
2022-08-21T07:46:05.963Z,3563
2022-08-21T07:56:05.978Z,3566
2022-08-21T08:06:05.919Z,3569
2022-08-21T08:16:05.890Z,3566
2022-08-21T08:26:05.903Z,3569
2022-08-21T08:36:08.098Z,3569
2022-08-21T08:46:05.837Z,3569
2022-08-21T08:56:05.849Z,3569
2022-08-21T09:06:05.802Z,3571
2022-08-21T09:16:05.776Z,3569
2022-08-21T09:26:05.797Z,3571
2022-08-21T09:36:05.723Z,3574
2022-08-21T09:46:05.715Z,3574
2022-08-21T09:56:05.729Z,3576
2022-08-21T10:06:05.659Z,3579
2022-08-21T10:16:05.638Z,3579
2022-08-21T10:26:13.185Z,3584
2022-08-21T10:36:05.595Z,3584
2022-08-21T10:46:05.939Z,3587
2022-08-21T10:56:05.597Z,3589
2022-08-21T11:06:05.543Z,3589
2022-08-21T11:16:05.546Z,3592
2022-08-21T11:26:05.543Z,3592
2022-08-21T11:36:05.472Z,3592
2022-08-21T11:46:05.489Z,3594
2022-08-21T11:56:05.473Z,3594
2022-08-21T12:06:05.416Z,3594
2022-08-21T12:16:05.435Z,3594
2022-08-21T12:26:05.406Z,3594
2022-08-21T12:36:05.355Z,3594
2022-08-21T12:46:05.376Z,3594
2022-08-21T12:56:05.345Z,3594
2022-08-21T13:06:05.304Z,3594
2022-08-21T13:16:05.294Z,3592
2022-08-21T13:26:05.278Z,3594
2022-08-21T13:36:05.225Z,3594
2022-08-21T13:46:05.243Z,3594
2022-08-21T13:56:05.221Z,3594
2022-08-21T14:06:05.163Z,3589
2022-08-21T14:16:05.170Z,3592
2022-08-21T14:26:05.149Z,3592
2022-08-21T14:36:05.096Z,3594
2022-08-21T14:46:05.113Z,3594
2022-08-21T14:56:05.097Z,3594
2022-08-21T15:06:05.045Z,3592
2022-08-21T15:16:05.060Z,3592
2022-08-21T15:26:04.989Z,3589
2022-08-21T15:36:04.971Z,3589
2022-08-21T15:46:04.988Z,3589
2022-08-21T15:56:04.924Z,3589
2022-08-21T16:06:04.896Z,3589
2022-08-21T16:16:04.914Z,3589
2022-08-21T16:26:04.861Z,3587
2022-08-21T16:36:04.843Z,3589
2022-08-21T16:46:04.846Z,3589
2022-08-21T16:56:04.804Z,3587
2022-08-21T17:06:04.770Z,3589
2022-08-21T17:16:04.787Z,3587
2022-08-21T17:26:04.742Z,3587
2022-08-21T17:36:04.731Z,3587
2022-08-21T17:46:04.717Z,3587
2022-08-21T17:56:04.651Z,3584
2022-08-21T18:06:04.628Z,3584
2022-08-21T18:16:04.646Z,3584
2022-08-21T18:26:04.592Z,3584
2022-08-21T18:46:04.583Z,3584
2022-08-21T18:56:05.343Z,3579
2022-08-21T19:06:04.507Z,3581
2022-08-21T19:16:04.513Z,3579
2022-08-21T19:26:04.459Z,3581
2022-08-21T19:36:04.431Z,3579
2022-08-21T19:46:04.419Z,3579
2022-08-21T19:56:04.438Z,3579
2022-08-21T20:06:04.371Z,3579
2022-08-21T20:16:04.370Z,3579
2022-08-21T20:26:05.792Z,3579
2022-08-21T20:36:04.319Z,3576
2022-08-21T20:46:04.293Z,3574
2022-08-21T20:56:04.302Z,3576
2022-08-21T21:06:04.259Z,3574
2022-08-21T21:16:04.304Z,3574
2022-08-21T21:26:04.250Z,3574
2022-08-21T21:36:04.192Z,3574
2022-08-21T21:46:04.165Z,3574
2022-08-21T21:56:04.176Z,3574
2022-08-21T22:06:04.122Z,3569
2022-08-21T22:16:05.265Z,3569
2022-08-21T22:26:04.110Z,3569
2022-08-21T22:36:04.066Z,3569
2022-08-21T22:46:04.049Z,3569
2022-08-21T22:56:04.061Z,3569
2022-08-21T23:06:12.677Z,3569
2022-08-21T23:16:03.980Z,3566
2022-08-21T23:26:04.010Z,3566
2022-08-21T23:36:03.943Z,3566
2022-08-21T23:46:04.488Z,3569
2022-08-21T23:56:03.927Z,3566
